Terminal Aerodrome Forecast
Issued by NWS Amarillo, TX

Home | Current Version | Previous Version | Text Only | Print | Product List | Glossary On
Versions: 1 2 3 4 5 6 7 8 9 10 11 12 13 14 15 16
000
FTUS44 KAMA 142300 RRA
TAFDHT
TAF
KDHT 142344Z 1500/1524 21015G25KT P6SM SCT100
     FM150200 22011KT P6SM SCT100
     FM150900 23008KT P6SM FEW030 SCT120
     FM151600 34015G25KT P6SM SCT050 BKN120=

USA.gov is the U.S. government's official web portal to all federal, state and local government web resources and services.